Time;durP1;ratioP1;P1;durP2;ratioP2;P2;SDS_P1;SDS_P2;PMS_P1;PMS_P2;Temp;Humidity;BMP_temperature;BMP_pressure;BME280_temperature;BME280_humidity;BME280_pressure;Samples;Min_cycle;Max_cycle;Signal;HPM_P1;HPM_P2
2023/06/11 00:00:52;;;;;;;;;;;21.20;99.90;;;;;;5047149;28;19945;-75
2023/06/11 00:03:21;;;;;;;;;;;21.10;99.90;;;;;;5049273;28;19925;-75
2023/06/11 00:05:48;;;;;;;;;;;21.10;99.90;;;;;;5033707;28;19932;-75
2023/06/11 00:08:16;;;;;;;;;;;20.90;99.90;;;;;;5033610;28;19975;-75
2023/06/11 00:10:43;;;;;;;;;;;20.80;99.90;;;;;;5034062;28;19939;-75
2023/06/11 00:13:10;;;;;;;;;;;20.70;99.90;;;;;;5049769;28;19925;-75
2023/06/11 00:15:36;;;;;;;;;;;20.70;99.90;;;;;;5036547;28;19935;-75
2023/06/11 00:18:04;;;;;;;;;;;20.60;99.90;;;;;;5034872;28;20269;-75
2023/06/11 00:20:32;;;;;;;;;;;20.60;99.90;;;;;;5033304;28;20027;-75
2023/06/11 00:22:59;;;;;;;;;;;20.60;99.90;;;;;;5042683;28;19925;-75
2023/06/11 00:25:27;;;;;;;;;;;20.60;99.90;;;;;;5032860;28;19925;-75
2023/06/11 00:27:54;;;;;;;;;;;20.60;99.90;;;;;;5033080;28;19984;-75
2023/06/11 00:30:21;;;;;;;;;;;20.70;99.90;;;;;;5032960;28;20421;-75
2023/06/11 00:32:48;;;;;;;;;;;20.70;99.90;;;;;;5044652;28;19936;-75
2023/06/11 00:35:14;;;;;;;;;;;20.60;99.90;;;;;;5050516;28;19925;-75
2023/06/11 00:37:42;;;;;;;;;;;20.60;99.90;;;;;;5037444;28;19925;-75
2023/06/11 00:40:09;;;;;;;;;;;20.50;99.90;;;;;;5029433;28;19925;-75
2023/06/11 00:42:37;;;;;;;;;;;20.50;99.90;;;;;;5043713;28;19998;-75
2023/06/11 00:45:06;;;;;;;;;;;20.50;99.90;;;;;;5039671;28;19971;-75
2023/06/11 00:47:33;;;;;;;;;;;20.60;99.90;;;;;;5032882;28;19925;-74
2023/06/11 00:50:02;;;;;;;;;;;20.60;99.90;;;;;;5032698;28;19925;-75
2023/06/11 00:52:29;;;;;;;;;;;20.60;99.90;;;;;;5040895;28;19975;-75
2023/06/11 00:54:55;;;;;;;;;;;20.60;99.90;;;;;;5037337;28;19967;-75
2023/06/11 00:57:24;;;;;;;;;;;20.60;99.90;;;;;;5032545;28;20004;-75
2023/06/11 00:59:53;;;;;;;;;;;20.60;99.90;;;;;;5046414;28;19924;-75
2023/06/11 01:02:24;;;;;;;;;;;20.60;99.90;;;;;;5030280;28;20353;-75
2023/06/11 01:04:53;;;;;;;;;;;20.60;99.90;;;;;;5032072;28;19925;-75
2023/06/11 01:07:22;;;;;;;;;;;20.60;99.90;;;;;;5036239;28;19929;-74
2023/06/11 01:09:49;;;;;;;;;;;20.20;99.90;;;;;;5033961;28;19931;-75
2023/06/11 01:12:16;;;;;;;;;;;20.60;99.90;;;;;;5064717;28;19932;-74
2023/06/11 01:14:43;;;;;;;;;;;20.60;99.90;;;;;;5044013;28;19925;-75
2023/06/11 01:17:15;;;;;;;;;;;20.60;99.90;;;;;;5036217;28;19967;-75
2023/06/11 01:19:48;;;;;;;;;;;20.50;99.90;;;;;;5032634;28;20331;-75
2023/06/11 01:22:19;;;;;;;;;;;20.50;99.90;;;;;;5033201;28;19971;-74
2023/06/11 01:24:57;;;;;;;;;;;20.50;99.90;;;;;;5037004;28;20299;-75
2023/06/11 01:27:35;;;;;;;;;;;20.50;99.90;;;;;;5034182;28;19932;-75
2023/06/11 01:30:05;;;;;;;;;;;20.50;99.90;;;;;;5038019;28;19925;-75
2023/06/11 01:32:32;;;;;;;;;;;20.60;99.90;;;;;;5033401;28;20047;-75
2023/06/11 01:35:02;;;;;;;;;;;20.60;99.90;;;;;;5045702;28;19928;-75
2023/06/11 01:37:32;;;;;;;;;;;20.60;99.90;;;;;;5040970;28;19925;-75
2023/06/11 01:40:00;;;;;;;;;;;20.60;99.90;;;;;;5038545;28;19925;-75
2023/06/11 01:42:36;;;;;;;;;;;20.60;99.90;;;;;;5034590;28;19978;-75
2023/06/11 01:45:05;;;;;;;;;;;20.60;99.90;;;;;;5032304;28;19925;-75
2023/06/11 01:47:32;;;;;;;;;;;20.60;99.90;;;;;;5040166;28;19933;-75
2023/06/11 01:50:00;;;;;;;;;;;20.60;99.90;;;;;;5032002;28;19948;-75
2023/06/11 01:52:27;;;;;;;;;;;20.60;99.90;;;;;;5040807;28;19932;-75
2023/06/11 01:54:54;;;;;;;;;;;20.50;99.90;;;;;;5031993;28;19925;-75
2023/06/11 01:57:21;;;;;;;;;;;20.50;99.90;;;;;;5039981;28;19924;-75
2023/06/11 01:59:48;;;;;;;;;;;20.50;99.90;;;;;;5032417;28;19933;-75
2023/06/11 02:02:16;;;;;;;;;;;20.50;99.90;;;;;;5032659;28;19925;-75
2023/06/11 02:04:43;;;;;;;;;;;20.50;99.90;;;;;;5039601;28;19932;-74
2023/06/11 02:07:11;;;;;;;;;;;20.50;99.90;;;;;;5039869;28;19925;-75
2023/06/11 02:09:38;;;;;;;;;;;20.40;99.90;;;;;;5036437;28;19924;-75
2023/06/11 02:12:05;;;;;;;;;;;20.40;99.90;;;;;;5034395;28;19971;-75
2023/06/11 02:14:32;;;;;;;;;;;20.40;99.90;;;;;;5040043;28;19936;-75
2023/06/11 02:16:59;;;;;;;;;;;20.30;99.90;;;;;;5039623;28;20416;-75
2023/06/11 02:19:35;;;;;;;;;;;20.30;99.90;;;;;;5039389;28;19925;-75
2023/06/11 02:22:01;;;;;;;;;;;20.30;99.90;;;;;;5038455;28;19928;-75
2023/06/11 02:24:28;;;;;;;;;;;20.30;99.90;;;;;;5037330;28;19929;-75
2023/06/11 02:26:55;;;;;;;;;;;20.30;99.90;;;;;;5058707;28;19925;-75
2023/06/11 02:29:22;;;;;;;;;;;20.30;99.90;;;;;;5033220;28;20015;-75
2023/06/11 02:31:49;;;;;;;;;;;20.30;99.90;;;;;;5038197;28;19951;-75
2023/06/11 02:34:16;;;;;;;;;;;20.20;99.90;;;;;;5039035;28;20024;-75
2023/06/11 02:36:44;;;;;;;;;;;20.30;99.90;;;;;;5028667;28;19925;-75
2023/06/11 02:39:11;;;;;;;;;;;20.20;99.90;;;;;;5035045;28;19929;-74
2023/06/11 02:41:38;;;;;;;;;;;20.20;99.90;;;;;;5031099;28;19972;-75
2023/06/11 02:44:04;;;;;;;;;;;20.20;99.90;;;;;;5058686;28;19932;-75
2023/06/11 02:46:31;;;;;;;;;;;20.20;99.90;;;;;;5034527;28;19932;-75
2023/06/11 02:48:58;;;;;;;;;;;20.10;99.90;;;;;;5042478;28;20127;-74
2023/06/11 02:51:25;;;;;;;;;;;20.10;99.90;;;;;;5033182;28;19933;-75
2023/06/11 02:53:53;;;;;;;;;;;20.00;99.90;;;;;;5035840;28;19925;-74
2023/06/11 02:56:20;;;;;;;;;;;20.00;99.90;;;;;;5058654;28;19926;-75
2023/06/11 02:58:47;;;;;;;;;;;20.00;99.90;;;;;;5042926;28;19960;-74
2023/06/11 03:01:14;;;;;;;;;;;19.90;99.90;;;;;;5041909;28;19997;-74
2023/06/11 03:03:41;;;;;;;;;;;19.90;99.90;;;;;;5064606;28;20295;-75
2023/06/11 03:06:09;;;;;;;;;;;19.90;99.90;;;;;;5042024;28;20024;-75
2023/06/11 03:08:36;;;;;;;;;;;19.90;99.90;;;;;;5038317;28;19931;-75
2023/06/11 03:11:04;;;;;;;;;;;19.90;99.90;;;;;;5031273;28;19925;-75
2023/06/11 03:13:35;;;;;;;;;;;19.80;99.90;;;;;;5059416;28;19928;-75
2023/06/11 03:16:02;;;;;;;;;;;19.80;99.90;;;;;;5042085;28;20479;-75
2023/06/11 03:18:29;;;;;;;;;;;19.80;99.90;;;;;;5032968;28;19941;-75
2023/06/11 03:20:56;;;;;;;;;;;19.80;99.90;;;;;;5031431;28;20380;-75
2023/06/11 03:23:23;;;;;;;;;;;19.70;99.90;;;;;;5039295;28;20016;-74
2023/06/11 03:25:50;;;;;;;;;;;19.80;99.90;;;;;;5032799;28;19925;-74
2023/06/11 03:28:19;;;;;;;;;;;19.70;99.90;;;;;;5039237;28;19925;-75
2023/06/11 03:30:46;;;;;;;;;;;19.70;99.90;;;;;;5028156;28;19932;-75
2023/06/11 03:33:13;;;;;;;;;;;19.70;99.90;;;;;;5038823;28;20019;-74
2023/06/11 03:35:40;;;;;;;;;;;19.70;99.90;;;;;;5047739;28;19972;-74
2023/06/11 03:38:18;;;;;;;;;;;19.70;99.90;;;;;;5031674;28;20312;-74
2023/06/11 03:40:45;;;;;;;;;;;19.60;99.90;;;;;;5038540;28;20016;-74
2023/06/11 03:43:12;;;;;;;;;;;19.60;99.90;;;;;;5038495;28;19925;-74
2023/06/11 03:45:42;;;;;;;;;;;19.60;99.90;;;;;;5040645;28;20023;-74
2023/06/11 03:48:09;;;;;;;;;;;19.60;99.90;;;;;;5036424;28;20000;-75
2023/06/11 03:50:36;;;;;;;;;;;19.50;99.90;;;;;;5032479;28;19925;-75
2023/06/11 03:53:03;;;;;;;;;;;19.50;99.90;;;;;;5041124;28;19932;-75
2023/06/11 03:55:30;;;;;;;;;;;19.50;99.90;;;;;;5047510;28;19929;-74
2023/06/11 03:57:57;;;;;;;;;;;19.50;99.90;;;;;;5040336;28;19956;-74
2023/06/11 04:00:26;;;;;;;;;;;19.50;99.90;;;;;;5039651;28;19999;-74
2023/06/11 04:02:54;;;;;;;;;;;19.50;99.90;;;;;;5045564;28;19925;-75
2023/06/11 04:05:22;;;;;;;;;;;19.60;99.90;;;;;;5037929;28;19980;-75
2023/06/11 04:07:55;;;;;;;;;;;19.60;99.90;;;;;;5040728;28;19925;-74
2023/06/11 04:10:22;;;;;;;;;;;19.60;99.90;;;;;;5043339;28;19925;-75
2023/06/11 04:12:49;;;;;;;;;;;19.60;99.90;;;;;;5030261;28;19961;-75
2023/06/11 04:15:15;;;;;;;;;;;19.60;99.90;;;;;;5041712;28;19962;-75
2023/06/11 04:17:43;;;;;;;;;;;19.60;99.90;;;;;;5037609;28;20002;-75
2023/06/11 04:20:12;;;;;;;;;;;19.70;99.90;;;;;;5036818;28;19961;-75
2023/06/11 04:22:40;;;;;;;;;;;19.70;99.90;;;;;;5032982;28;19932;-76
2023/06/11 04:25:07;;;;;;;;;;;19.70;99.90;;;;;;5033459;28;19972;-75
2023/06/11 04:27:36;;;;;;;;;;;19.80;99.90;;;;;;5053287;28;19932;-75
2023/06/11 04:30:06;;;;;;;;;;;19.80;99.90;;;;;;5066335;28;19925;-74
2023/06/11 04:32:36;;;;;;;;;;;19.80;99.90;;;;;;5045456;28;19931;-75
2023/06/11 04:35:05;;;;;;;;;;;19.90;99.90;;;;;;5050112;28;20024;-75
2023/06/11 04:37:38;;;;;;;;;;;19.90;99.90;;;;;;5042012;28;19925;-74
2023/06/11 04:40:10;;;;;;;;;;;19.90;99.90;;;;;;5048716;28;19925;-75
2023/06/11 04:42:40;;;;;;;;;;;20.00;99.90;;;;;;5042611;28;20008;-74
2023/06/11 04:45:09;;;;;;;;;;;20.00;99.90;;;;;;5040149;28;19932;-75
2023/06/11 04:47:36;;;;;;;;;;;20.10;99.90;;;;;;5058014;28;20287;-75
2023/06/11 04:50:04;;;;;;;;;;;20.10;99.90;;;;;;5040953;28;19925;-75
2023/06/11 04:52:32;;;;;;;;;;;20.10;99.90;;;;;;5042870;28;19931;-75
2023/06/11 04:55:01;;;;;;;;;;;20.10;99.90;;;;;;5035193;28;19933;-75
2023/06/11 04:57:28;;;;;;;;;;;20.20;99.90;;;;;;5040920;28;19959;-74
2023/06/11 04:59:55;;;;;;;;;;;20.20;99.90;;;;;;5036110;28;19950;-75
2023/06/11 05:02:22;;;;;;;;;;;20.30;99.90;;;;;;5032154;28;19925;-75
2023/06/11 05:04:53;;;;;;;;;;;20.30;99.90;;;;;;5037830;28;19925;-74
2023/06/11 05:07:21;;;;;;;;;;;20.30;99.90;;;;;;5033430;28;19929;-75
2023/06/11 05:09:48;;;;;;;;;;;20.40;99.90;;;;;;5045926;28;19925;-75
2023/06/11 05:12:18;;;;;;;;;;;20.50;99.90;;;;;;5037763;28;19956;-75
2023/06/11 05:14:45;;;;;;;;;;;20.50;99.90;;;;;;5040372;28;19925;-74
2023/06/11 05:17:12;;;;;;;;;;;20.60;99.90;;;;;;5036272;28;20450;-75
2023/06/11 05:19:40;;;;;;;;;;;20.50;99.90;;;;;;5033784;28;19940;-75
2023/06/11 05:22:07;;;;;;;;;;;20.60;99.90;;;;;;5040350;28;19972;-74
2023/06/11 05:24:34;;;;;;;;;;;20.70;99.90;;;;;;5039114;28;19932;-74
2023/06/11 05:27:03;;;;;;;;;;;20.70;99.90;;;;;;5042229;28;20308;-75
2023/06/11 05:29:34;;;;;;;;;;;20.80;99.90;;;;;;5043872;28;19928;-75
2023/06/11 05:32:02;;;;;;;;;;;20.80;99.90;;;;;;5039158;28;19929;-75
2023/06/11 05:34:33;;;;;;;;;;;20.90;99.90;;;;;;5062017;28;19972;-75
2023/06/11 05:37:02;;;;;;;;;;;20.90;99.90;;;;;;5041531;28;19931;-75
2023/06/11 05:39:29;;;;;;;;;;;21.00;99.90;;;;;;5034077;28;19925;-75
2023/06/11 05:41:56;;;;;;;;;;;21.00;99.90;;;;;;5041820;28;20070;-74
2023/06/11 05:44:24;;;;;;;;;;;21.10;99.90;;;;;;5042796;28;19925;-76
2023/06/11 05:46:52;;;;;;;;;;;21.10;99.90;;;;;;5041474;28;19975;-76
2023/06/11 05:49:19;;;;;;;;;;;21.20;99.90;;;;;;5037275;28;19968;-76
2023/06/11 05:51:46;;;;;;;;;;;21.50;99.90;;;;;;5042355;28;19924;-75
2023/06/11 05:54:13;;;;;;;;;;;21.70;99.90;;;;;;5045342;28;20343;-75
2023/06/11 05:56:40;;;;;;;;;;;21.90;99.90;;;;;;5043519;28;19929;-75
2023/06/11 05:59:09;;;;;;;;;;;22.00;99.90;;;;;;5042039;28;19924;-75
2023/06/11 06:01:36;;;;;;;;;;;22.00;99.90;;;;;;5041514;28;19925;-75
2023/06/11 06:04:06;;;;;;;;;;;22.00;99.90;;;;;;5043224;28;19924;-75
2023/06/11 06:06:33;;;;;;;;;;;22.10;99.90;;;;;;5042006;28;19928;-74
2023/06/11 06:09:00;;;;;;;;;;;22.00;99.90;;;;;;5042883;28;19957;-75
2023/06/11 06:11:27;;;;;;;;;;;22.10;99.90;;;;;;5040825;28;19925;-76
2023/06/11 06:13:55;;;;;;;;;;;22.10;99.90;;;;;;5034716;28;20388;-75
2023/06/11 06:16:22;;;;;;;;;;;22.20;99.90;;;;;;5041374;28;19932;-75
2023/06/11 06:18:49;;;;;;;;;;;22.30;99.90;;;;;;5037979;28;19925;-75
2023/06/11 06:21:17;;;;;;;;;;;22.30;99.90;;;;;;5036260;28;19925;-75
2023/06/11 06:23:44;;;;;;;;;;;22.40;99.90;;;;;;5042053;28;19980;-76
2023/06/11 06:26:13;;;;;;;;;;;22.40;99.90;;;;;;5039351;28;19934;-76
2023/06/11 06:28:40;;;;;;;;;;;22.40;99.90;;;;;;5039307;28;19925;-74
2023/06/11 06:31:12;;;;;;;;;;;22.30;99.90;;;;;;5038610;28;20008;-75
2023/06/11 06:33:40;;;;;;;;;;;22.40;99.90;;;;;;5034116;28;19925;-75
2023/06/11 06:36:07;;;;;;;;;;;22.50;99.90;;;;;;5043963;28;19924;-75
2023/06/11 06:38:36;;;;;;;;;;;22.50;99.90;;;;;;5031309;28;19925;-75
2023/06/11 06:41:03;;;;;;;;;;;22.60;99.90;;;;;;5038720;28;19987;-75
2023/06/11 06:43:30;;;;;;;;;;;22.60;99.90;;;;;;5041477;28;19932;-75
2023/06/11 06:45:57;;;;;;;;;;;22.80;99.90;;;;;;5038355;28;20008;-78
2023/06/11 06:48:27;;;;;;;;;;;22.80;99.90;;;;;;5034654;28;20000;-76
2023/06/11 06:50:57;;;;;;;;;;;22.90;99.90;;;;;;5040282;28;19925;-76
2023/06/11 06:53:25;;;;;;;;;;;23.00;99.90;;;;;;5047870;28;19947;-75
2023/06/11 06:55:53;;;;;;;;;;;23.00;99.90;;;;;;5035748;28;19925;-75
2023/06/11 06:58:20;;;;;;;;;;;23.10;99.90;;;;;;5060578;28;19971;-75
2023/06/11 07:00:47;;;;;;;;;;;23.20;99.90;;;;;;5041102;28;19937;-76
2023/06/11 07:03:15;;;;;;;;;;;23.10;99.90;;;;;;5055984;28;19925;-76
2023/06/11 07:05:44;;;;;;;;;;;23.10;99.90;;;;;;5043791;28;19925;-75
2023/06/11 07:08:12;;;;;;;;;;;23.10;99.90;;;;;;5034793;28;21216;-75
2023/06/11 07:10:41;;;;;;;;;;;23.20;99.90;;;;;;5032902;28;20388;-75
2023/06/11 07:13:10;;;;;;;;;;;23.30;99.90;;;;;;5056312;28;19932;-75
2023/06/11 07:15:38;;;;;;;;;;;23.30;99.90;;;;;;5036569;28;19983;-75
2023/06/11 07:18:05;;;;;;;;;;;23.40;99.90;;;;;;5053171;28;19925;-76
2023/06/11 07:20:32;;;;;;;;;;;23.30;99.90;;;;;;5036603;28;19933;-75
2023/06/11 07:23:00;;;;;;;;;;;23.30;99.90;;;;;;5043639;28;19933;-77
2023/06/11 07:25:28;;;;;;;;;;;23.30;99.90;;;;;;5050825;28;19964;-77
2023/06/11 07:27:55;;;;;;;;;;;23.40;99.90;;;;;;5035502;28;20017;-76
2023/06/11 07:30:24;;;;;;;;;;;23.50;99.90;;;;;;5051755;28;19929;-79
2023/06/11 07:32:52;;;;;;;;;;;23.60;99.90;;;;;;5059946;28;19925;-73
2023/06/11 07:35:20;;;;;;;;;;;23.60;99.90;;;;;;5040780;28;20024;-75
2023/06/11 07:37:46;;;;;;;;;;;23.70;99.90;;;;;;5038430;28;19929;-75
2023/06/11 07:40:15;;;;;;;;;;;23.80;99.90;;;;;;5036847;28;19971;-75
2023/06/11 07:42:43;;;;;;;;;;;23.80;99.90;;;;;;5037062;28;20024;-75
2023/06/11 07:45:11;;;;;;;;;;;23.80;99.90;;;;;;5054046;28;19925;-74
2023/06/11 07:47:39;;;;;;;;;;;23.90;99.90;;;;;;5037831;28;19975;-74
2023/06/11 07:50:07;;;;;;;;;;;24.00;99.90;;;;;;5037327;28;19929;-75
2023/06/11 07:52:34;;;;;;;;;;;24.10;99.90;;;;;;5034496;28;20019;-75
2023/06/11 07:55:09;;;;;;;;;;;24.20;99.90;;;;;;5033568;28;19925;-75
2023/06/11 07:57:36;;;;;;;;;;;24.30;99.90;;;;;;5035261;28;19960;-82
2023/06/11 08:00:10;;;;;;;;;;;24.30;99.90;;;;;;5052779;28;19975;-75
2023/06/11 08:02:41;;;;;;;;;;;24.30;99.90;;;;;;5037173;28;20321;-75
2023/06/11 08:05:10;;;;;;;;;;;24.30;99.90;;;;;;5039843;28;19925;-75
2023/06/11 08:07:36;;;;;;;;;;;24.40;99.90;;;;;;5036852;28;19931;-76
2023/06/11 08:10:06;;;;;;;;;;;24.40;99.90;;;;;;5033912;28;20396;-76
2023/06/11 08:12:33;;;;;;;;;;;24.50;99.90;;;;;;5039684;28;19924;-74
2023/06/11 08:15:00;;;;;;;;;;;24.60;99.90;;;;;;5038150;28;19932;-78
2023/06/11 08:17:26;;;;;;;;;;;24.70;99.90;;;;;;5036458;28;19936;-77
2023/06/11 08:19:55;;;;;;;;;;;24.80;99.90;;;;;;5044370;28;19924;-76
2023/06/11 08:22:22;;;;;;;;;;;24.80;99.90;;;;;;5039995;28;20017;-77
2023/06/11 08:24:48;;;;;;;;;;;24.90;99.90;;;;;;5042071;28;19925;-80
2023/06/11 08:27:15;;;;;;;;;;;25.00;99.90;;;;;;5034073;28;19948;-75
2023/06/11 08:29:42;;;;;;;;;;;25.10;99.90;;;;;;5036498;28;20141;-75
2023/06/11 08:32:09;;;;;;;;;;;25.20;99.90;;;;;;5030451;28;19929;-75
2023/06/11 08:34:36;;;;;;;;;;;25.30;99.90;;;;;;5040156;28;19925;-76
2023/06/11 08:37:04;;;;;;;;;;;25.30;99.90;;;;;;5041788;28;19964;-76
2023/06/11 08:39:31;;;;;;;;;;;25.30;99.90;;;;;;5035516;28;20388;-76
2023/06/11 08:41:58;;;;;;;;;;;25.30;99.90;;;;;;5040973;28;20074;-77
2023/06/11 08:44:24;;;;;;;;;;;25.30;99.90;;;;;;5038520;28;19936;-78
2023/06/11 08:46:53;;;;;;;;;;;25.40;99.90;;;;;;5036129;28;20004;-76
2023/06/11 08:49:20;;;;;;;;;;;25.60;99.90;;;;;;5031599;28;20024;-77
2023/06/11 08:51:47;;;;;;;;;;;25.70;99.90;;;;;;5036874;28;20316;-76
2023/06/11 08:54:16;;;;;;;;;;;25.80;99.90;;;;;;5039156;28;19925;-70
2023/06/11 08:56:43;;;;;;;;;;;25.80;99.90;;;;;;5037060;28;20453;-75
2023/06/11 08:59:10;;;;;;;;;;;25.90;99.90;;;;;;5035194;28;20376;-75
2023/06/11 09:01:39;;;;;;;;;;;25.90;99.90;;;;;;5032459;28;19955;-76
2023/06/11 09:04:06;;;;;;;;;;;26.10;99.90;;;;;;5035952;28;19925;-77
2023/06/11 09:06:34;;;;;;;;;;;26.20;99.90;;;;;;5029677;28;20412;-77
2023/06/11 09:09:02;;;;;;;;;;;26.30;99.90;;;;;;5047653;28;19925;-78
2023/06/11 09:11:34;;;;;;;;;;;26.40;99.90;;;;;;5042613;28;19925;-77
2023/06/11 09:14:01;;;;;;;;;;;26.40;99.90;;;;;;5043269;28;19925;-77
2023/06/11 09:16:28;;;;;;;;;;;26.50;99.90;;;;;;5038455;28;19928;-77
2023/06/11 09:18:55;;;;;;;;;;;26.60;99.90;;;;;;5033885;28;19925;-77
2023/06/11 09:21:23;;;;;;;;;;;26.70;99.90;;;;;;5039414;28;19925;-78
2023/06/11 09:23:50;;;;;;;;;;;26.70;99.90;;;;;;5036283;28;19929;-77
2023/06/11 09:26:17;;;;;;;;;;;26.60;99.90;;;;;;5036117;28;19941;-75
2023/06/11 09:28:46;;;;;;;;;;;26.70;99.90;;;;;;5035991;28;19933;-74
2023/06/11 09:31:13;;;;;;;;;;;26.90;99.90;;;;;;5036314;28;19925;-74
2023/06/11 09:33:39;;;;;;;;;;;26.90;99.90;;;;;;5040106;28;20307;-76
2023/06/11 09:36:06;;;;;;;;;;;26.90;99.90;;;;;;5051336;28;19932;-75
2023/06/11 09:38:33;;;;;;;;;;;26.70;99.90;;;;;;5034851;28;19929;-76
2023/06/11 09:41:00;;;;;;;;;;;26.80;99.90;;;;;;5033387;28;19925;-79
2023/06/11 09:43:27;;;;;;;;;;;27.00;99.90;;;;;;5031887;28;19933;-79
2023/06/11 09:45:56;;;;;;;;;;;27.20;99.90;;;;;;5031366;28;20387;-75
2023/06/11 09:48:23;;;;;;;;;;;27.30;99.90;;;;;;5029611;28;20300;-76
2023/06/11 09:50:50;;;;;;;;;;;27.40;99.90;;;;;;5035611;28;19932;-77
2023/06/11 09:53:18;;;;;;;;;;;27.50;99.90;;;;;;5035569;28;20016;-78
2023/06/11 09:55:46;;;;;;;;;;;27.40;99.90;;;;;;5031152;28;20400;-78
2023/06/11 09:58:13;;;;;;;;;;;27.50;99.90;;;;;;5029228;28;20278;-77
2023/06/11 10:00:40;;;;;;;;;;;27.50;99.90;;;;;;5035401;28;20388;-75
2023/06/11 10:03:09;;;;;;;;;;;27.60;99.90;;;;;;5047602;28;20331;-77
2023/06/11 10:05:36;;;;;;;;;;;27.80;99.90;;;;;;5030777;28;19933;-76
2023/06/11 10:08:05;;;;;;;;;;;28.00;99.90;;;;;;5031105;28;20512;-76
2023/06/11 10:10:35;;;;;;;;;;;27.90;99.90;;;;;;5037188;28;20330;-77
2023/06/11 10:13:01;;;;;;;;;;;28.00;99.90;;;;;;5038274;28;19925;-76
2023/06/11 10:15:31;;;;;;;;;;;27.80;99.90;;;;;;5032264;28;19932;-77
2023/06/11 10:17:57;;;;;;;;;;;27.80;99.90;;;;;;5038482;28;19940;-77
2023/06/11 10:20:28;;;;;;;;;;;27.80;99.90;;;;;;5039676;28;19932;-77
2023/06/11 10:23:05;;;;;;;;;;;28.00;99.90;;;;;;5029462;28;19925;-77
2023/06/11 10:25:35;;;;;;;;;;;28.20;99.90;;;;;;5039453;28;20490;-75
2023/06/11 10:28:02;;;;;;;;;;;28.30;99.90;;;;;;5034145;28;19948;-75
2023/06/11 10:30:29;;;;;;;;;;;28.40;99.90;;;;;;5037896;28;20451;-75
2023/06/11 10:32:58;;;;;;;;;;;28.50;99.90;;;;;;5034688;28;20402;-76
2023/06/11 10:35:25;;;;;;;;;;;28.60;99.90;;;;;;5031035;28;19936;-75
2023/06/11 10:38:02;;;;;;;;;;;28.60;99.90;;;;;;5032141;28;19925;-75
2023/06/11 10:40:32;;;;;;;;;;;28.60;99.90;;;;;;5034255;28;19925;-77
2023/06/11 10:42:59;;;;;;;;;;;28.70;99.90;;;;;;5031191;28;19933;-77
2023/06/11 10:45:33;;;;;;;;;;;28.80;99.90;;;;;;5034810;28;20380;-76
2023/06/11 10:48:00;;;;;;;;;;;28.80;99.90;;;;;;5032742;28;19925;-77
2023/06/11 10:50:31;;;;;;;;;;;29.00;99.90;;;;;;5039375;28;19986;-75
2023/06/11 10:53:01;;;;;;;;;;;29.10;99.90;;;;;;5033785;28;20376;-78
2023/06/11 10:55:29;;;;;;;;;;;29.20;99.90;;;;;;5030316;28;19925;-79
2023/06/11 10:57:56;;;;;;;;;;;29.20;99.90;;;;;;5035866;28;19932;-74
2023/06/11 11:00:23;;;;;;;;;;;29.20;99.90;;;;;;5035820;28;19932;-71
2023/06/11 11:02:50;;;;;;;;;;;29.30;99.90;;;;;;5033043;28;19925;-72
2023/06/11 11:05:17;;;;;;;;;;;29.40;99.90;;;;;;5028703;28;19925;-74
2023/06/11 11:07:45;;;;;;;;;;;29.50;99.90;;;;;;5030526;28;19925;-72
2023/06/11 11:10:18;;;;;;;;;;;29.40;99.90;;;;;;5047186;28;20412;-72
2023/06/11 11:12:46;;;;;;;;;;;29.30;99.90;;;;;;5030686;28;20402;-71
2023/06/11 11:15:13;;;;;;;;;;;29.30;99.90;;;;;;5045207;28;20312;-71
2023/06/11 11:17:40;;;;;;;;;;;29.50;99.90;;;;;;5030744;28;20364;-71
2023/06/11 11:20:07;;;;;;;;;;;29.70;99.90;;;;;;5033654;28;19928;-72
2023/06/11 11:22:34;;;;;;;;;;;29.90;99.90;;;;;;5033405;28;19932;-73
2023/06/11 11:25:01;;;;;;;;;;;29.70;99.90;;;;;;5035072;28;19929;-75
2023/06/11 11:27:29;;;;;;;;;;;29.80;99.90;;;;;;5033228;28;19929;-74
2023/06/11 11:29:57;;;;;;;;;;;29.90;99.90;;;;;;5030358;28;19925;-76
2023/06/11 11:32:26;;;;;;;;;;;30.10;99.90;;;;;;5032691;28;19925;-74
2023/06/11 11:34:53;;;;;;;;;;;30.10;99.90;;;;;;5027701;28;19979;-69
2023/06/11 11:37:21;;;;;;;;;;;30.20;99.90;;;;;;5028919;28;19929;-69
2023/06/11 11:39:48;;;;;;;;;;;30.90;99.90;;;;;;5032826;28;20364;-69
2023/06/11 11:42:15;;;;;;;;;;;31.90;99.90;;;;;;5047049;28;19929;-69
2023/06/11 11:44:43;;;;;;;;;;;33.00;99.90;;;;;;5037579;28;19925;-69
2023/06/11 11:47:10;;;;;;;;;;;33.30;99.90;;;;;;5035211;28;20273;-69
2023/06/11 11:49:37;;;;;;;;;;;33.50;99.90;;;;;;5029065;28;19928;-69
2023/06/11 11:52:05;;;;;;;;;;;34.20;99.90;;;;;;5040248;28;20545;-69
2023/06/11 11:54:32;;;;;;;;;;;34.30;99.90;;;;;;5049832;28;19964;-69
2023/06/11 11:57:01;;;;;;;;;;;35.10;99.90;;;;;;5040431;28;20281;-69
2023/06/11 11:59:28;;;;;;;;;;;36.10;99.90;;;;;;5038879;28;19925;-69
2023/06/11 12:01:57;;;;;;;;;;;36.00;99.90;;;;;;5041038;28;19928;-69
2023/06/11 12:04:33;;;;;;;;;;;36.50;99.90;;;;;;5040935;28;19925;-70
2023/06/11 12:07:02;;;;;;;;;;;36.70;99.90;;;;;;5032640;28;20467;-69
2023/06/11 12:09:29;;;;;;;;;;;36.90;99.90;;;;;;5040897;28;19925;-69
2023/06/11 12:11:55;;;;;;;;;;;37.10;99.90;;;;;;5034183;28;20454;-69
2023/06/11 12:14:22;;;;;;;;;;;37.90;99.90;;;;;;5036031;28;19925;-69
2023/06/11 12:16:49;;;;;;;;;;;38.50;99.90;;;;;;5036979;28;20442;-69
2023/06/11 12:19:18;;;;;;;;;;;38.40;99.90;;;;;;5040371;28;19929;-69
2023/06/11 12:21:44;;;;;;;;;;;39.00;99.90;;;;;;5043402;28;19925;-69
2023/06/11 12:24:14;;;;;;;;;;;39.40;99.90;;;;;;5038620;28;19933;-70
2023/06/11 12:26:42;;;;;;;;;;;39.80;99.90;;;;;;5035206;28;19933;-69
2023/06/11 12:29:09;;;;;;;;;;;40.20;99.90;;;;;;5034451;28;20123;-69
2023/06/11 12:31:36;;;;;;;;;;;39.80;99.90;;;;;;5045473;28;19935;-69
2023/06/11 12:34:04;;;;;;;;;;;40.00;99.90;;;;;;5031649;28;20392;-69
2023/06/11 12:36:32;;;;;;;;;;;39.90;99.90;;;;;;5053734;28;19947;-71
2023/06/11 12:39:00;;;;;;;;;;;39.30;99.90;;;;;;5046807;28;20300;-69
2023/06/11 12:41:27;;;;;;;;;;;39.40;99.90;;;;;;5051066;28;19929;-69
2023/06/11 12:43:54;;;;;;;;;;;39.40;99.90;;;;;;5032939;28;19929;-69
2023/06/11 12:46:20;;;;;;;;;;;39.30;99.90;;;;;;5042449;28;20338;-70
2023/06/11 12:48:47;;;;;;;;;;;39.80;99.90;;;;;;5035608;28;20412;-70
2023/06/11 12:51:14;;;;;;;;;;;39.40;99.90;;;;;;5034141;28;19929;-69
2023/06/11 12:53:42;;;;;;;;;;;39.00;99.90;;;;;;5035197;28;19925;-69
2023/06/11 12:56:09;;;;;;;;;;;39.00;99.90;;;;;;5040364;28;19932;-69
2023/06/11 12:58:35;;;;;;;;;;;39.30;99.90;;;;;;5041872;28;19979;-74
2023/06/11 13:01:02;;;;;;;;;;;39.10;99.90;;;;;;5034428;28;20015;-69
2023/06/11 13:03:30;;;;;;;;;;;38.90;99.90;;;;;;5034587;28;20419;-69
2023/06/11 13:05:57;;;;;;;;;;;38.70;99.90;;;;;;5034403;28;19933;-69
2023/06/11 13:08:24;;;;;;;;;;;39.10;99.90;;;;;;5031177;28;19925;-69
2023/06/11 13:10:53;;;;;;;;;;;39.50;99.90;;;;;;5034682;28;19925;-69
2023/06/11 13:13:20;;;;;;;;;;;39.80;99.90;;;;;;5031943;28;19956;-68
2023/06/11 13:15:46;;;;;;;;;;;39.80;99.90;;;;;;5034622;28;19936;-69
2023/06/11 13:18:13;;;;;;;;;;;39.80;99.90;;;;;;5040260;28;19936;-70
2023/06/11 13:20:40;;;;;;;;;;;39.70;99.90;;;;;;5042581;28;19929;-69
2023/06/11 13:23:07;;;;;;;;;;;38.80;99.90;;;;;;5042401;28;19929;-68
2023/06/11 13:25:36;;;;;;;;;;;38.70;99.90;;;;;;5040609;28;20402;-69
2023/06/11 13:28:04;;;;;;;;;;;38.00;99.90;;;;;;5042508;28;20304;-69
2023/06/11 13:30:31;;;;;;;;;;;37.80;99.90;;;;;;5047594;28;19929;-69
2023/06/11 13:32:59;;;;;;;;;;;37.40;99.90;;;;;;5034188;28;19925;-70
2023/06/11 13:35:26;;;;;;;;;;;38.10;99.90;;;;;;5054940;28;20400;-70
2023/06/11 13:37:52;;;;;;;;;;;38.40;99.90;;;;;;5039104;28;19925;-69
2023/06/11 13:40:21;;;;;;;;;;;39.00;99.90;;;;;;5024534;28;20260;-69
2023/06/11 13:42:48;;;;;;;;;;;39.80;99.90;;;;;;5031789;28;19975;-70
2023/06/11 13:45:15;;;;;;;;;;;40.10;99.90;;;;;;5043213;28;19960;-70
2023/06/11 13:47:42;;;;;;;;;;;40.00;99.90;;;;;;5033888;28;20466;-70
2023/06/11 13:50:09;;;;;;;;;;;40.00;99.90;;;;;;5040495;28;19925;-70
2023/06/11 13:52:36;;;;;;;;;;;39.70;99.90;;;;;;5044711;28;20021;-71
2023/06/11 13:55:03;;;;;;;;;;;39.90;99.90;;;;;;5033427;28;19956;-72
2023/06/11 13:57:31;;;;;;;;;;;39.90;99.50;;;;;;5042278;28;20380;-69
2023/06/11 13:59:59;;;;;;;;;;;39.80;99.00;;;;;;5040447;28;20030;-70
2023/06/11 14:02:27;;;;;;;;;;;39.90;98.90;;;;;;5034383;28;19924;-69
2023/06/11 14:04:53;;;;;;;;;;;39.90;99.70;;;;;;5030443;28;19956;-70
2023/06/11 14:07:20;;;;;;;;;;;40.10;99.90;;;;;;5029191;28;19932;-69
2023/06/11 14:09:47;;;;;;;;;;;39.40;99.70;;;;;;5040002;28;19952;-70
2023/06/11 14:12:14;;;;;;;;;;;38.80;99.50;;;;;;5034577;28;20039;-75
2023/06/11 14:14:40;;;;;;;;;;;37.50;99.50;;;;;;5042679;28;19932;-72
2023/06/11 14:17:07;;;;;;;;;;;36.90;99.60;;;;;;5039180;28;20016;-71
2023/06/11 14:19:35;;;;;;;;;;;37.50;99.50;;;;;;5042414;28;20303;-71